Aeroporto :
LOGIN :

Iscrizione | Disclaimer

   EN    FR    IT 

 










Sommario :    VFR   VFR Marginale   IFR   IFR Intensivo   IFR Molto Intensivo
Visibilità : 
Base nubi : 
>= 8 km
>= 3000ft
5 / 8 km
1000 / 3000 ft
1500m / 5 km
500 / 1000 ft
800 / 1500m
200 / 500 ft
< 800m
< 200 ft
Simboli :   Temporali  Nebbia  Neve Forte  Precipitazioni Forti  Vento > 20 kt
SIGMETs :   Varie  Temporali  Ghiacco  Turbolenza  Onda orograficha  Ceneri Vulcaniche






- Altitudine del aeroporto : 297 ft


EGVP - Middle Wallop

ULTIMO METAR :
  • 291150Z 25010KT 9999 FEW022 08/04 Q1011 NOSIG RMK BLU BLU

METARs OBSOLETI :
  • 291123Z 23009KT 9999 FEW015 07/03 Q1011 NOSIG RMK BLU BLU
  • 291050Z 23008KT 9999 FEW025 06/03 Q1011 NOSIG RMK BLU BLU
  • 291022Z 22009KT 9999 FEW033 06/03 Q1010 NOSIG RMK BLU BLU
  • 290950Z 21005KT 9999 FEW033 04/02 Q1010 NOSIG RMK BLU BLU
  • 290923Z 23007KT 9999 FEW032 SCT240 03/01 Q1010 NOSIG RMK BLU BLU

TAF TAF EGVP
Valido dal 29 a 12 ore il 29 a 21 ore UTC


291026Z 2912/2921 25010KT 9999 FEW020
PROB40
TEMPO 2912/2919 SCT020
ATIS : +44 1980 674 142



MetMap, La meteo Aeronautica in un colpo d'occhio ! - Copyright ORBIFLY Dicembre 2007 - Disclaimer

ORBIFLY MET'MAP TEAM :

Programmazione e sviluppo : Alexandra Zaïnal
Concezione : Baudouin d'Aumeries
Aiuto per la programmazione : Marc-Olivier Méhu
Supporto tecnico e logistico : Manuel Goepfert
Aiuto per la traduzione : Arnaldo La Scala

Contatto : metmap@orbifly.com




FONTI E CREDITI :

   NOAA